sensor_id;sensor_type;location;lat;lon;timestamp;P1;durP1;ratioP1;P2;durP2;ratioP2
39434;SDS011;30098;51.880;-0.518;2022-08-19T00:00:23;1.70;;;1.60;;
39434;SDS011;30098;51.880;-0.518;2022-08-19T00:02:49;1.50;;;1.40;;
39434;SDS011;30098;51.880;-0.518;2022-08-19T00:05:16;1.75;;;1.65;;
39434;SDS011;30098;51.880;-0.518;2022-08-19T00:07:44;1.60;;;1.50;;
39434;SDS011;30098;51.880;-0.518;2022-08-19T00:10:10;1.60;;;1.50;;
39434;SDS011;30098;51.880;-0.518;2022-08-19T00:12:38;1.70;;;1.60;;
39434;SDS011;30098;51.880;-0.518;2022-08-19T00:15:10;1.73;;;1.63;;
39434;SDS011;30098;51.880;-0.518;2022-08-19T00:17:41;1.50;;;1.40;;
39434;SDS011;30098;51.880;-0.518;2022-08-19T00:20:13;2.50;;;1.50;;
39434;SDS011;30098;51.880;-0.518;2022-08-19T00:22:43;1.70;;;1.60;;
39434;SDS011;30098;51.880;-0.518;2022-08-19T00:25:09;2.08;;;1.20;;
39434;SDS011;30098;51.880;-0.518;2022-08-19T00:27:35;1.60;;;1.50;;
39434;SDS011;30098;51.880;-0.518;2022-08-19T00:30:02;1.65;;;1.55;;
39434;SDS011;30098;51.880;-0.518;2022-08-19T00:32:29;1.40;;;1.30;;
39434;SDS011;30098;51.880;-0.518;2022-08-19T00:34:55;1.77;;;1.65;;
39434;SDS011;30098;51.880;-0.518;2022-08-19T00:37:21;1.50;;;1.40;;
39434;SDS011;30098;51.880;-0.518;2022-08-19T00:39:48;1.73;;;1.63;;
39434;SDS011;30098;51.880;-0.518;2022-08-19T00:42:16;1.50;;;1.40;;
39434;SDS011;30098;51.880;-0.518;2022-08-19T00:44:43;1.70;;;1.50;;
39434;SDS011;30098;51.880;-0.518;2022-08-19T00:47:09;1.50;;;1.40;;
39434;SDS011;30098;51.880;-0.518;2022-08-19T00:49:35;1.60;;;1.50;;
39434;SDS011;30098;51.880;-0.518;2022-08-19T00:52:35;1.63;;;1.30;;
39434;SDS011;30098;51.880;-0.518;2022-08-19T00:55:05;1.60;;;1.50;;
39434;SDS011;30098;51.880;-0.518;2022-08-19T00:57:37;1.45;;;1.35;;
39434;SDS011;30098;51.880;-0.518;2022-08-19T01:00:07;1.60;;;1.50;;
39434;SDS011;30098;51.880;-0.518;2022-08-19T01:02:36;1.42;;;1.33;;
39434;SDS011;30098;51.880;-0.518;2022-08-19T01:05:04;1.58;;;1.48;;
39434;SDS011;30098;51.880;-0.518;2022-08-19T01:07:33;1.55;;;1.45;;
39434;SDS011;30098;51.880;-0.518;2022-08-19T01:10:00;1.40;;;1.30;;
39434;SDS011;30098;51.880;-0.518;2022-08-19T01:12:27;1.55;;;1.45;;
39434;SDS011;30098;51.880;-0.518;2022-08-19T01:14:52;1.80;;;1.48;;
39434;SDS011;30098;51.880;-0.518;2022-08-19T01:17:19;1.40;;;1.30;;
39434;SDS011;30098;51.880;-0.518;2022-08-19T01:19:45;1.48;;;1.38;;
39434;SDS011;30098;51.880;-0.518;2022-08-19T01:24:38;1.60;;;1.50;;
39434;SDS011;30098;51.880;-0.518;2022-08-19T01:27:04;1.45;;;1.35;;
39434;SDS011;30098;51.880;-0.518;2022-08-19T01:29:30;1.40;;;1.30;;
39434;SDS011;30098;51.880;-0.518;2022-08-19T01:31:56;1.60;;;1.50;;
39434;SDS011;30098;51.880;-0.518;2022-08-19T01:34:22;1.50;;;1.40;;
39434;SDS011;30098;51.880;-0.518;2022-08-19T01:36:48;1.45;;;1.35;;
39434;SDS011;30098;51.880;-0.518;2022-08-19T01:39:16;1.35;;;1.25;;
39434;SDS011;30098;51.880;-0.518;2022-08-19T01:41:46;1.40;;;1.30;;
39434;SDS011;30098;51.880;-0.518;2022-08-19T01:44:13;1.40;;;1.30;;
39434;SDS011;30098;51.880;-0.518;2022-08-19T01:46:39;1.60;;;1.50;;
39434;SDS011;30098;51.880;-0.518;2022-08-19T01:49:06;1.50;;;1.40;;
39434;SDS011;30098;51.880;-0.518;2022-08-19T01:51:33;1.58;;;1.48;;
39434;SDS011;30098;51.880;-0.518;2022-08-19T01:53:59;1.40;;;1.30;;
39434;SDS011;30098;51.880;-0.518;2022-08-19T01:56:25;1.90;;;1.80;;
39434;SDS011;30098;51.880;-0.518;2022-08-19T01:58:52;1.50;;;1.40;;
39434;SDS011;30098;51.880;-0.518;2022-08-19T02:01:22;1.58;;;1.48;;
39434;SDS011;30098;51.880;-0.518;2022-08-19T02:03:47;1.30;;;1.20;;
39434;SDS011;30098;51.880;-0.518;2022-08-19T02:06:13;1.30;;;1.20;;
39434;SDS011;30098;51.880;-0.518;2022-08-19T02:08:39;1.20;;;1.10;;
39434;SDS011;30098;51.880;-0.518;2022-08-19T02:11:05;1.48;;;1.38;;
39434;SDS011;30098;51.880;-0.518;2022-08-19T02:13:32;1.33;;;1.23;;
39434;SDS011;30098;51.880;-0.518;2022-08-19T02:15:59;1.30;;;1.20;;
39434;SDS011;30098;51.880;-0.518;2022-08-19T02:18:25;1.30;;;1.20;;
39434;SDS011;30098;51.880;-0.518;2022-08-19T02:20:51;1.40;;;1.30;;
39434;SDS011;30098;51.880;-0.518;2022-08-19T02:23:17;1.35;;;1.25;;
39434;SDS011;30098;51.880;-0.518;2022-08-19T02:25:46;1.42;;;1.33;;
39434;SDS011;30098;51.880;-0.518;2022-08-19T02:28:13;1.50;;;1.40;;
39434;SDS011;30098;51.880;-0.518;2022-08-19T02:30:40;1.20;;;1.10;;
39434;SDS011;30098;51.880;-0.518;2022-08-19T02:33:06;1.30;;;1.20;;
39434;SDS011;30098;51.880;-0.518;2022-08-19T02:35:32;1.25;;;1.15;;
39434;SDS011;30098;51.880;-0.518;2022-08-19T02:37:57;1.20;;;1.10;;
39434;SDS011;30098;51.880;-0.518;2022-08-19T02:40:47;1.40;;;1.30;;
39434;SDS011;30098;51.880;-0.518;2022-08-19T02:43:17;1.30;;;1.20;;
39434;SDS011;30098;51.880;-0.518;2022-08-19T02:45:45;1.27;;;1.17;;
39434;SDS011;30098;51.880;-0.518;2022-08-19T02:48:14;1.30;;;1.20;;
39434;SDS011;30098;51.880;-0.518;2022-08-19T02:50:42;1.30;;;1.20;;
39434;SDS011;30098;51.880;-0.518;2022-08-19T02:53:09;1.25;;;1.15;;
39434;SDS011;30098;51.880;-0.518;2022-08-19T02:55:34;1.30;;;1.20;;
39434;SDS011;30098;51.880;-0.518;2022-08-19T02:58:00;1.33;;;1.23;;
39434;SDS011;30098;51.880;-0.518;2022-08-19T03:00:26;1.20;;;1.10;;
39434;SDS011;30098;51.880;-0.518;2022-08-19T03:02:52;1.48;;;1.33;;
39434;SDS011;30098;51.880;-0.518;2022-08-19T03:05:18;1.30;;;1.20;;
39434;SDS011;30098;51.880;-0.518;2022-08-19T03:07:44;1.40;;;1.30;;
39434;SDS011;30098;51.880;-0.518;2022-08-19T03:10:11;1.40;;;1.30;;
39434;SDS011;30098;51.880;-0.518;2022-08-19T03:12:37;1.45;;;1.35;;
39434;SDS011;30098;51.880;-0.518;2022-08-19T03:15:06;1.50;;;1.40;;
39434;SDS011;30098;51.880;-0.518;2022-08-19T03:17:33;1.27;;;1.17;;
39434;SDS011;30098;51.880;-0.518;2022-08-19T03:19:59;1.20;;;1.10;;
39434;SDS011;30098;51.880;-0.518;2022-08-19T03:22:24;1.33;;;1.23;;
39434;SDS011;30098;51.880;-0.518;2022-08-19T03:24:50;1.30;;;1.20;;
39434;SDS011;30098;51.880;-0.518;2022-08-19T03:27:16;1.30;;;1.20;;
39434;SDS011;30098;51.880;-0.518;2022-08-19T03:29:42;1.20;;;1.10;;
39434;SDS011;30098;51.880;-0.518;2022-08-19T03:32:08;1.10;;;1.00;;
39434;SDS011;30098;51.880;-0.518;2022-08-19T03:34:34;1.27;;;1.17;;
39434;SDS011;30098;51.880;-0.518;2022-08-19T03:37:06;1.20;;;1.10;;
39434;SDS011;30098;51.880;-0.518;2022-08-19T03:39:33;1.38;;;1.27;;
39434;SDS011;30098;51.880;-0.518;2022-08-19T03:42:00;1.27;;;1.17;;
39434;SDS011;30098;51.880;-0.518;2022-08-19T03:44:28;1.40;;;1.30;;
39434;SDS011;30098;51.880;-0.518;2022-08-19T03:46:57;1.20;;;1.10;;
39434;SDS011;30098;51.880;-0.518;2022-08-19T03:49:24;1.30;;;1.20;;
39434;SDS011;30098;51.880;-0.518;2022-08-19T03:51:52;1.20;;;1.10;;
39434;SDS011;30098;51.880;-0.518;2022-08-19T03:54:20;1.20;;;1.10;;
39434;SDS011;30098;51.880;-0.518;2022-08-19T03:56:48;1.30;;;1.20;;
39434;SDS011;30098;51.880;-0.518;2022-08-19T03:59:17;1.17;;;1.08;;
39434;SDS011;30098;51.880;-0.518;2022-08-19T04:01:47;1.08;;;1.08;;
39434;SDS011;30098;51.880;-0.518;2022-08-19T04:04:12;1.30;;;1.20;;
39434;SDS011;30098;51.880;-0.518;2022-08-19T04:06:38;1.20;;;1.10;;
39434;SDS011;30098;51.880;-0.518;2022-08-19T04:09:05;1.15;;;1.05;;
39434;SDS011;30098;51.880;-0.518;2022-08-19T04:11:34;1.05;;;0.98;;
39434;SDS011;30098;51.880;-0.518;2022-08-19T04:14:04;1.10;;;1.00;;
39434;SDS011;30098;51.880;-0.518;2022-08-19T04:16:29;1.35;;;1.25;;
39434;SDS011;30098;51.880;-0.518;2022-08-19T04:18:56;0.90;;;0.90;;
39434;SDS011;30098;51.880;-0.518;2022-08-19T04:21:23;1.20;;;1.10;;
39434;SDS011;30098;51.880;-0.518;2022-08-19T04:23:50;1.30;;;1.20;;
39434;SDS011;30098;51.880;-0.518;2022-08-19T04:26:17;1.10;;;1.00;;
39434;SDS011;30098;51.880;-0.518;2022-08-19T04:28:45;1.10;;;1.00;;
39434;SDS011;30098;51.880;-0.518;2022-08-19T04:31:15;1.20;;;1.10;;
39434;SDS011;30098;51.880;-0.518;2022-08-19T04:33:42;1.00;;;1.00;;
39434;SDS011;30098;51.880;-0.518;2022-08-19T04:36:07;1.20;;;1.10;;
39434;SDS011;30098;51.880;-0.518;2022-08-19T04:38:41;1.13;;;1.02;;
39434;SDS011;30098;51.880;-0.518;2022-08-19T04:41:06;1.10;;;1.00;;
39434;SDS011;30098;51.880;-0.518;2022-08-19T04:43:50;1.20;;;1.02;;
39434;SDS011;30098;51.880;-0.518;2022-08-19T04:46:16;1.13;;;1.00;;
39434;SDS011;30098;51.880;-0.518;2022-08-19T04:48:42;1.02;;;0.93;;
39434;SDS011;30098;51.880;-0.518;2022-08-19T04:51:09;1.10;;;1.00;;
39434;SDS011;30098;51.880;-0.518;2022-08-19T04:53:38;1.20;;;1.10;;
39434;SDS011;30098;51.880;-0.518;2022-08-19T04:56:06;1.10;;;1.00;;
39434;SDS011;30098;51.880;-0.518;2022-08-19T04:58:35;1.08;;;0.98;;
39434;SDS011;30098;51.880;-0.518;2022-08-19T05:01:01;1.08;;;0.98;;
39434;SDS011;30098;51.880;-0.518;2022-08-19T05:03:27;1.20;;;1.10;;
39434;SDS011;30098;51.880;-0.518;2022-08-19T05:05:55;0.95;;;0.95;;
39434;SDS011;30098;51.880;-0.518;2022-08-19T05:08:21;1.15;;;1.00;;
39434;SDS011;30098;51.880;-0.518;2022-08-19T05:10:47;1.00;;;0.90;;
39434;SDS011;30098;51.880;-0.518;2022-08-19T05:13:15;1.00;;;1.00;;
39434;SDS011;30098;51.880;-0.518;2022-08-19T05:15:43;0.98;;;0.90;;
39434;SDS011;30098;51.880;-0.518;2022-08-19T05:18:09;1.20;;;1.10;;
39434;SDS011;30098;51.880;-0.518;2022-08-19T05:20:53;1.08;;;0.98;;
39434;SDS011;30098;51.880;-0.518;2022-08-19T05:23:37;1.10;;;1.00;;
39434;SDS011;30098;51.880;-0.518;2022-08-19T05:26:03;0.80;;;0.80;;
39434;SDS011;30098;51.880;-0.518;2022-08-19T05:28:29;0.68;;;0.68;;
39434;SDS011;30098;51.880;-0.518;2022-08-19T05:30:55;1.08;;;0.93;;
39434;SDS011;30098;51.880;-0.518;2022-08-19T05:33:21;0.85;;;0.80;;
39434;SDS011;30098;51.880;-0.518;2022-08-19T05:35:47;0.95;;;0.90;;
39434;SDS011;30098;51.880;-0.518;2022-08-19T05:38:14;0.90;;;0.90;;
39434;SDS011;30098;51.880;-0.518;2022-08-19T05:40:41;0.88;;;0.88;;
39434;SDS011;30098;51.880;-0.518;2022-08-19T05:43:13;0.80;;;0.80;;
39434;SDS011;30098;51.880;-0.518;2022-08-19T05:45:42;0.90;;;0.90;;
39434;SDS011;30098;51.880;-0.518;2022-08-19T05:48:11;1.08;;;0.80;;
39434;SDS011;30098;51.880;-0.518;2022-08-19T05:50:38;0.88;;;0.80;;
39434;SDS011;30098;51.880;-0.518;2022-08-19T05:53:05;1.85;;;0.80;;
39434;SDS011;30098;51.880;-0.518;2022-08-19T05:55:31;0.80;;;0.80;;
39434;SDS011;30098;51.880;-0.518;2022-08-19T05:57:57;0.70;;;0.70;;
39434;SDS011;30098;51.880;-0.518;2022-08-19T06:00:23;0.80;;;0.80;;
39434;SDS011;30098;51.880;-0.518;2022-08-19T06:02:49;0.80;;;0.80;;
39434;SDS011;30098;51.880;-0.518;2022-08-19T06:05:16;1.15;;;0.90;;
39434;SDS011;30098;51.880;-0.518;2022-08-19T06:07:41;0.80;;;0.80;;
39434;SDS011;30098;51.880;-0.518;2022-08-19T06:10:07;0.90;;;0.90;;
39434;SDS011;30098;51.880;-0.518;2022-08-19T06:12:35;1.48;;;0.88;;
39434;SDS011;30098;51.880;-0.518;2022-08-19T06:15:02;0.80;;;0.70;;
39434;SDS011;30098;51.880;-0.518;2022-08-19T06:17:30;0.80;;;0.80;;
39434;SDS011;30098;51.880;-0.518;2022-08-19T06:19:56;1.00;;;0.90;;
39434;SDS011;30098;51.880;-0.518;2022-08-19T06:22:21;0.80;;;0.70;;
39434;SDS011;30098;51.880;-0.518;2022-08-19T06:24:47;0.77;;;0.75;;
39434;SDS011;30098;51.880;-0.518;2022-08-19T06:27:12;0.70;;;0.70;;
39434;SDS011;30098;51.880;-0.518;2022-08-19T06:29:38;0.80;;;0.80;;
39434;SDS011;30098;51.880;-0.518;2022-08-19T06:32:04;0.85;;;0.80;;
39434;SDS011;30098;51.880;-0.518;2022-08-19T06:34:30;0.80;;;0.68;;
39434;SDS011;30098;51.880;-0.518;2022-08-19T06:36:59;0.70;;;0.70;;
39434;SDS011;30098;51.880;-0.518;2022-08-19T06:39:27;0.90;;;0.80;;
39434;SDS011;30098;51.880;-0.518;2022-08-19T06:41:57;0.90;;;0.75;;
39434;SDS011;30098;51.880;-0.518;2022-08-19T06:44:28;0.80;;;0.80;;
39434;SDS011;30098;51.880;-0.518;2022-08-19T06:47:00;0.70;;;0.70;;
39434;SDS011;30098;51.880;-0.518;2022-08-19T06:49:28;0.88;;;0.70;;
39434;SDS011;30098;51.880;-0.518;2022-08-19T06:51:55;0.90;;;0.73;;
39434;SDS011;30098;51.880;-0.518;2022-08-19T06:54:22;1.30;;;0.90;;
39434;SDS011;30098;51.880;-0.518;2022-08-19T06:56:48;0.60;;;0.60;;
39434;SDS011;30098;51.880;-0.518;2022-08-19T06:59:17;0.70;;;0.63;;
39434;SDS011;30098;51.880;-0.518;2022-08-19T07:01:46;0.80;;;0.70;;
39434;SDS011;30098;51.880;-0.518;2022-08-19T07:04:15;1.15;;;0.80;;
39434;SDS011;30098;51.880;-0.518;2022-08-19T07:06:42;1.52;;;0.73;;
39434;SDS011;30098;51.880;-0.518;2022-08-19T07:09:09;1.25;;;0.70;;
39434;SDS011;30098;51.880;-0.518;2022-08-19T07:11:36;1.08;;;0.70;;
39434;SDS011;30098;51.880;-0.518;2022-08-19T07:14:02;0.90;;;0.88;;
39434;SDS011;30098;51.880;-0.518;2022-08-19T07:16:27;1.17;;;0.80;;
39434;SDS011;30098;51.880;-0.518;2022-08-19T07:18:54;1.00;;;0.80;;
39434;SDS011;30098;51.880;-0.518;2022-08-19T07:21:25;0.85;;;0.80;;
39434;SDS011;30098;51.880;-0.518;2022-08-19T07:23:56;0.77;;;0.73;;
39434;SDS011;30098;51.880;-0.518;2022-08-19T07:26:25;0.90;;;0.70;;
39434;SDS011;30098;51.880;-0.518;2022-08-19T07:28:53;1.02;;;0.70;;
39434;SDS011;30098;51.880;-0.518;2022-08-19T07:31:21;1.05;;;0.95;;
39434;SDS011;30098;51.880;-0.518;2022-08-19T07:33:49;0.90;;;0.80;;
39434;SDS011;30098;51.880;-0.518;2022-08-19T07:36:18;0.88;;;0.70;;
39434;SDS011;30098;51.880;-0.518;2022-08-19T07:38:47;1.63;;;0.70;;
39434;SDS011;30098;51.880;-0.518;2022-08-19T07:41:16;1.02;;;0.80;;
39434;SDS011;30098;51.880;-0.518;2022-08-19T07:43:44;1.13;;;0.80;;
39434;SDS011;30098;51.880;-0.518;2022-08-19T07:46:10;0.82;;;0.80;;
39434;SDS011;30098;51.880;-0.518;2022-08-19T07:48:39;1.88;;;0.70;;
39434;SDS011;30098;51.880;-0.518;2022-08-19T07:51:07;0.95;;;0.75;;
39434;SDS011;30098;51.880;-0.518;2022-08-19T07:53:34;1.10;;;0.70;;
39434;SDS011;30098;51.880;-0.518;2022-08-19T07:56:00;0.80;;;0.75;;
39434;SDS011;30098;51.880;-0.518;2022-08-19T07:58:28;1.23;;;0.82;;
39434;SDS011;30098;51.880;-0.518;2022-08-19T08:00:54;1.17;;;0.80;;
39434;SDS011;30098;51.880;-0.518;2022-08-19T08:03:21;1.33;;;0.80;;
39434;SDS011;30098;51.880;-0.518;2022-08-19T08:08:55;2.45;;;0.70;;
39434;SDS011;30098;51.880;-0.518;2022-08-19T08:11:38;2.65;;;1.00;;
39434;SDS011;30098;51.880;-0.518;2022-08-19T08:14:05;2.55;;;1.27;;
39434;SDS011;30098;51.880;-0.518;2022-08-19T08:16:35;3.00;;;1.30;;
39434;SDS011;30098;51.880;-0.518;2022-08-19T08:19:05;6.47;;;1.63;;
39434;SDS011;30098;51.880;-0.518;2022-08-19T08:21:32;3.25;;;1.38;;
39434;SDS011;30098;51.880;-0.518;2022-08-19T08:23:58;3.53;;;1.25;;
39434;SDS011;30098;51.880;-0.518;2022-08-19T08:26:23;5.07;;;1.20;;
39434;SDS011;30098;51.880;-0.518;2022-08-19T08:28:50;3.50;;;1.20;;
39434;SDS011;30098;51.880;-0.518;2022-08-19T08:31:16;4.45;;;1.15;;
39434;SDS011;30098;51.880;-0.518;2022-08-19T08:33:44;3.92;;;1.20;;
39434;SDS011;30098;51.880;-0.518;2022-08-19T08:36:11;2.42;;;1.00;;
39434;SDS011;30098;51.880;-0.518;2022-08-19T08:38:41;2.58;;;0.90;;
39434;SDS011;30098;51.880;-0.518;2022-08-19T08:41:31;6.50;;;1.83;;
39434;SDS011;30098;51.880;-0.518;2022-08-19T08:43:59;8.38;;;1.98;;
39434;SDS011;30098;51.880;-0.518;2022-08-19T08:46:51;7.63;;;2.10;;
39434;SDS011;30098;51.880;-0.518;2022-08-19T08:52:04;6.80;;;2.20;;
39434;SDS011;30098;51.880;-0.518;2022-08-19T08:57:07;7.22;;;1.90;;
39434;SDS011;30098;51.880;-0.518;2022-08-19T08:59:41;6.45;;;1.50;;
39434;SDS011;30098;51.880;-0.518;2022-08-19T09:02:08;6.30;;;1.80;;
39434;SDS011;30098;51.880;-0.518;2022-08-19T09:04:35;4.13;;;1.20;;
39434;SDS011;30098;51.880;-0.518;2022-08-19T09:09:40;6.93;;;1.50;;
39434;SDS011;30098;51.880;-0.518;2022-08-19T09:12:45;4.70;;;1.50;;
39434;SDS011;30098;51.880;-0.518;2022-08-19T09:15:15;3.83;;;1.27;;
39434;SDS011;30098;51.880;-0.518;2022-08-19T09:17:43;4.63;;;1.40;;
39434;SDS011;30098;51.880;-0.518;2022-08-19T09:22:36;4.85;;;1.40;;
39434;SDS011;30098;51.880;-0.518;2022-08-19T09:25:02;4.63;;;1.40;;
39434;SDS011;30098;51.880;-0.518;2022-08-19T09:27:29;5.32;;;1.58;;
39434;SDS011;30098;51.880;-0.518;2022-08-19T09:29:57;4.55;;;1.40;;
39434;SDS011;30098;51.880;-0.518;2022-08-19T09:32:23;5.85;;;1.50;;
39434;SDS011;30098;51.880;-0.518;2022-08-19T09:34:49;6.75;;;1.70;;
39434;SDS011;30098;51.880;-0.518;2022-08-19T09:37:14;4.88;;;1.23;;
39434;SDS011;30098;51.880;-0.518;2022-08-19T09:39:40;5.75;;;1.60;;
39434;SDS011;30098;51.880;-0.518;2022-08-19T09:42:06;4.60;;;1.50;;
39434;SDS011;30098;51.880;-0.518;2022-08-19T09:44:37;6.47;;;1.58;;
39434;SDS011;30098;51.880;-0.518;2022-08-19T09:47:03;6.07;;;1.90;;
39434;SDS011;30098;51.880;-0.518;2022-08-19T09:49:29;9.38;;;2.25;;
39434;SDS011;30098;51.880;-0.518;2022-08-19T09:51:55;8.38;;;1.80;;
39434;SDS011;30098;51.880;-0.518;2022-08-19T09:54:21;6.75;;;2.00;;
39434;SDS011;30098;51.880;-0.518;2022-08-19T09:56:48;5.72;;;1.50;;
39434;SDS011;30098;51.880;-0.518;2022-08-19T09:59:14;7.55;;;1.83;;
39434;SDS011;30098;51.880;-0.518;2022-08-19T10:01:39;4.57;;;1.48;;
39434;SDS011;30098;51.880;-0.518;2022-08-19T10:04:05;6.25;;;1.88;;
39434;SDS011;30098;51.880;-0.518;2022-08-19T10:06:34;4.68;;;1.50;;
39434;SDS011;30098;51.880;-0.518;2022-08-19T10:09:02;6.18;;;1.85;;
39434;SDS011;30098;51.880;-0.518;2022-08-19T10:11:31;4.97;;;1.70;;
39434;SDS011;30098;51.880;-0.518;2022-08-19T10:13:57;5.25;;;1.67;;
39434;SDS011;30098;51.880;-0.518;2022-08-19T10:16:22;4.82;;;1.75;;
39434;SDS011;30098;51.880;-0.518;2022-08-19T10:18:49;8.25;;;1.88;;
39434;SDS011;30098;51.880;-0.518;2022-08-19T10:21:16;6.72;;;1.85;;
39434;SDS011;30098;51.880;-0.518;2022-08-19T10:23:47;8.43;;;2.30;;
39434;SDS011;30098;51.880;-0.518;2022-08-19T10:26:19;7.25;;;2.08;;
39434;SDS011;30098;51.880;-0.518;2022-08-19T10:28:50;5.57;;;1.70;;
39434;SDS011;30098;51.880;-0.518;2022-08-19T10:31:17;5.47;;;1.60;;
39434;SDS011;30098;51.880;-0.518;2022-08-19T10:33:46;6.00;;;1.87;;
39434;SDS011;30098;51.880;-0.518;2022-08-19T10:36:17;6.43;;;1.90;;
39434;SDS011;30098;51.880;-0.518;2022-08-19T10:38:48;6.53;;;2.00;;
39434;SDS011;30098;51.880;-0.518;2022-08-19T10:41:17;4.03;;;1.48;;
39434;SDS011;30098;51.880;-0.518;2022-08-19T10:43:45;8.52;;;1.80;;
39434;SDS011;30098;51.880;-0.518;2022-08-19T10:46:12;5.88;;;1.67;;
39434;SDS011;30098;51.880;-0.518;2022-08-19T10:48:40;6.70;;;1.88;;
39434;SDS011;30098;51.880;-0.518;2022-08-19T10:51:06;5.80;;;1.70;;
39434;SDS011;30098;51.880;-0.518;2022-08-19T10:53:51;6.50;;;2.00;;
39434;SDS011;30098;51.880;-0.518;2022-08-19T10:56:17;4.63;;;1.77;;
39434;SDS011;30098;51.880;-0.518;2022-08-19T10:59:02;4.18;;;1.65;;
39434;SDS011;30098;51.880;-0.518;2022-08-19T11:01:29;6.72;;;1.80;;
39434;SDS011;30098;51.880;-0.518;2022-08-19T11:03:59;6.22;;;1.98;;
39434;SDS011;30098;51.880;-0.518;2022-08-19T11:06:25;5.05;;;1.75;;
39434;SDS011;30098;51.880;-0.518;2022-08-19T11:08:51;4.93;;;1.60;;
39434;SDS011;30098;51.880;-0.518;2022-08-19T11:11:17;3.92;;;1.70;;
39434;SDS011;30098;51.880;-0.518;2022-08-19T11:13:43;4.72;;;1.52;;
39434;SDS011;30098;51.880;-0.518;2022-08-19T11:16:15;9.27;;;2.38;;
39434;SDS011;30098;51.880;-0.518;2022-08-19T11:18:43;5.78;;;2.00;;
39434;SDS011;30098;51.880;-0.518;2022-08-19T11:21:21;9.10;;;2.20;;
39434;SDS011;30098;51.880;-0.518;2022-08-19T11:23:48;5.93;;;1.98;;
39434;SDS011;30098;51.880;-0.518;2022-08-19T11:26:16;8.80;;;2.20;;
39434;SDS011;30098;51.880;-0.518;2022-08-19T11:28:43;7.93;;;2.15;;
39434;SDS011;30098;51.880;-0.518;2022-08-19T11:31:09;6.90;;;2.00;;
39434;SDS011;30098;51.880;-0.518;2022-08-19T11:33:39;7.13;;;1.95;;
39434;SDS011;30098;51.880;-0.518;2022-08-19T11:36:06;6.35;;;2.13;;
39434;SDS011;30098;51.880;-0.518;2022-08-19T11:38:32;6.60;;;1.88;;
39434;SDS011;30098;51.880;-0.518;2022-08-19T11:41:02;7.05;;;2.03;;
39434;SDS011;30098;51.880;-0.518;2022-08-19T11:43:29;9.20;;;2.10;;
39434;SDS011;30098;51.880;-0.518;2022-08-19T11:45:56;5.28;;;1.67;;
39434;SDS011;30098;51.880;-0.518;2022-08-19T11:48:22;4.53;;;1.58;;
39434;SDS011;30098;51.880;-0.518;2022-08-19T11:50:49;4.75;;;1.60;;
39434;SDS011;30098;51.880;-0.518;2022-08-19T11:53:15;3.85;;;1.52;;
39434;SDS011;30098;51.880;-0.518;2022-08-19T11:55:45;5.95;;;1.70;;
39434;SDS011;30098;51.880;-0.518;2022-08-19T11:58:12;6.60;;;1.90;;
39434;SDS011;30098;51.880;-0.518;2022-08-19T12:00:39;4.68;;;1.73;;
39434;SDS011;30098;51.880;-0.518;2022-08-19T12:03:05;5.13;;;1.83;;
39434;SDS011;30098;51.880;-0.518;2022-08-19T12:05:31;4.63;;;1.85;;
39434;SDS011;30098;51.880;-0.518;2022-08-19T12:07:57;4.80;;;1.63;;
39434;SDS011;30098;51.880;-0.518;2022-08-19T12:10:23;6.22;;;1.77;;
39434;SDS011;30098;51.880;-0.518;2022-08-19T12:12:49;5.53;;;1.55;;
39434;SDS011;30098;51.880;-0.518;2022-08-19T12:15:15;3.92;;;1.60;;
39434;SDS011;30098;51.880;-0.518;2022-08-19T12:17:41;4.78;;;1.60;;
39434;SDS011;30098;51.880;-0.518;2022-08-19T12:20:08;5.10;;;1.58;;
39434;SDS011;30098;51.880;-0.518;2022-08-19T12:22:36;4.63;;;1.60;;
39434;SDS011;30098;51.880;-0.518;2022-08-19T12:25:02;4.40;;;1.33;;
39434;SDS011;30098;51.880;-0.518;2022-08-19T12:27:30;5.70;;;1.65;;
39434;SDS011;30098;51.880;-0.518;2022-08-19T12:29:56;4.00;;;1.42;;
39434;SDS011;30098;51.880;-0.518;2022-08-19T12:32:22;3.67;;;1.40;;
39434;SDS011;30098;51.880;-0.518;2022-08-19T12:34:49;5.78;;;1.40;;
39434;SDS011;30098;51.880;-0.518;2022-08-19T12:37:15;6.45;;;1.50;;
39434;SDS011;30098;51.880;-0.518;2022-08-19T12:39:42;7.32;;;1.65;;
39434;SDS011;30098;51.880;-0.518;2022-08-19T12:42:08;4.25;;;1.58;;
39434;SDS011;30098;51.880;-0.518;2022-08-19T12:44:38;7.75;;;1.65;;
39434;SDS011;30098;51.880;-0.518;2022-08-19T12:47:06;5.55;;;1.80;;
39434;SDS011;30098;51.880;-0.518;2022-08-19T12:49:32;4.63;;;1.60;;
39434;SDS011;30098;51.880;-0.518;2022-08-19T12:52:02;5.32;;;1.52;;
39434;SDS011;30098;51.880;-0.518;2022-08-19T12:54:31;4.82;;;1.30;;
39434;SDS011;30098;51.880;-0.518;2022-08-19T12:56:57;6.15;;;1.98;;
39434;SDS011;30098;51.880;-0.518;2022-08-19T12:59:24;8.68;;;1.95;;
39434;SDS011;30098;51.880;-0.518;2022-08-19T13:01:50;9.55;;;2.60;;
39434;SDS011;30098;51.880;-0.518;2022-08-19T13:04:16;14.10;;;2.83;;
39434;SDS011;30098;51.880;-0.518;2022-08-19T13:06:41;11.52;;;2.33;;
39434;SDS011;30098;51.880;-0.518;2022-08-19T13:09:08;5.82;;;2.00;;
39434;SDS011;30098;51.880;-0.518;2022-08-19T13:11:34;10.82;;;1.85;;
39434;SDS011;30098;51.880;-0.518;2022-08-19T13:14:00;6.03;;;1.70;;
39434;SDS011;30098;51.880;-0.518;2022-08-19T13:16:27;6.00;;;2.05;;
39434;SDS011;30098;51.880;-0.518;2022-08-19T13:18:54;7.35;;;2.17;;
39434;SDS011;30098;51.880;-0.518;2022-08-19T13:21:21;7.72;;;2.00;;
39434;SDS011;30098;51.880;-0.518;2022-08-19T13:23:48;6.00;;;1.50;;
39434;SDS011;30098;51.880;-0.518;2022-08-19T13:26:15;7.00;;;1.80;;
39434;SDS011;30098;51.880;-0.518;2022-08-19T13:28:41;6.18;;;2.00;;
39434;SDS011;30098;51.880;-0.518;2022-08-19T13:31:27;5.78;;;1.75;;
39434;SDS011;30098;51.880;-0.518;2022-08-19T13:34:13;6.13;;;1.50;;
39434;SDS011;30098;51.880;-0.518;2022-08-19T13:36:40;6.43;;;1.58;;
39434;SDS011;30098;51.880;-0.518;2022-08-19T13:39:06;6.60;;;1.77;;
39434;SDS011;30098;51.880;-0.518;2022-08-19T13:41:36;5.85;;;1.80;;
39434;SDS011;30098;51.880;-0.518;2022-08-19T13:44:03;5.45;;;1.50;;
39434;SDS011;30098;51.880;-0.518;2022-08-19T13:46:31;7.27;;;1.60;;
39434;SDS011;30098;51.880;-0.518;2022-08-19T13:48:57;8.50;;;1.98;;
39434;SDS011;30098;51.880;-0.518;2022-08-19T13:51:22;4.90;;;1.70;;
39434;SDS011;30098;51.880;-0.518;2022-08-19T13:53:48;5.05;;;1.70;;
39434;SDS011;30098;51.880;-0.518;2022-08-19T13:56:15;5.20;;;1.60;;
39434;SDS011;30098;51.880;-0.518;2022-08-19T13:58:43;7.30;;;2.38;;
39434;SDS011;30098;51.880;-0.518;2022-08-19T14:01:09;5.32;;;1.77;;
39434;SDS011;30098;51.880;-0.518;2022-08-19T14:03:35;10.00;;;2.83;;
39434;SDS011;30098;51.880;-0.518;2022-08-19T14:06:01;5.20;;;1.85;;
39434;SDS011;30098;51.880;-0.518;2022-08-19T14:08:27;4.63;;;1.70;;
39434;SDS011;30098;51.880;-0.518;2022-08-19T14:10:55;5.50;;;1.80;;
39434;SDS011;30098;51.880;-0.518;2022-08-19T14:13:21;6.65;;;1.80;;
39434;SDS011;30098;51.880;-0.518;2022-08-19T14:15:48;6.50;;;2.00;;
39434;SDS011;30098;51.880;-0.518;2022-08-19T14:18:15;6.88;;;2.10;;
39434;SDS011;30098;51.880;-0.518;2022-08-19T14:20:42;5.72;;;1.80;;
39434;SDS011;30098;51.880;-0.518;2022-08-19T14:23:07;5.45;;;1.70;;
39434;SDS011;30098;51.880;-0.518;2022-08-19T14:25:33;3.88;;;1.60;;
39434;SDS011;30098;51.880;-0.518;2022-08-19T14:27:59;6.05;;;1.60;;
39434;SDS011;30098;51.880;-0.518;2022-08-19T14:30:35;4.63;;;1.60;;
39434;SDS011;30098;51.880;-0.518;2022-08-19T14:33:03;4.05;;;1.60;;
39434;SDS011;30098;51.880;-0.518;2022-08-19T14:35:30;5.15;;;1.58;;
39434;SDS011;30098;51.880;-0.518;2022-08-19T14:38:00;5.10;;;1.60;;
39434;SDS011;30098;51.880;-0.518;2022-08-19T14:40:28;4.32;;;1.50;;
39434;SDS011;30098;51.880;-0.518;2022-08-19T14:42:55;5.07;;;1.70;;
39434;SDS011;30098;51.880;-0.518;2022-08-19T14:45:30;6.13;;;1.50;;
39434;SDS011;30098;51.880;-0.518;2022-08-19T14:47:57;5.30;;;1.38;;
39434;SDS011;30098;51.880;-0.518;2022-08-19T14:50:24;6.25;;;2.00;;
39434;SDS011;30098;51.880;-0.518;2022-08-19T14:52:50;7.85;;;1.65;;